Wrenshall, Minnesota
Current Conditions -  °F | °C
As of 7:57 AM on Thursday 30 Oct 2014 (Local Time) from KCOQ Reporting Station
Overcast Overcast  
Wind Chill: 34°   Ceiling: 8000
Heat Index: 34°   Visibility: 10mi
Dew Point: 32°   Wind: 3mph
Humidity: 93%   Direction: 290°WNW
Pressure: 30.05"   Gusts: NA
Location:  46.62°N, 92.38°W
Report Text: KCOQ 301257Z AUTO 29003KT 10SM SCT021 OVC080 01/00 A3005 RMK AO2
Loading
Personal Weather Stations






























Interactive Weather Map
Tropical Storm Tracking
New forecast layout! Learn more

10-Day Weather Forecast

Advertisements
Track Severe Weather on mobile